createdAt,value
2019-01-24T00:00:15.420Z,-4.09
2019-01-24T00:01:15.409Z,-4.13
2019-01-24T00:02:15.395Z,-4.20
2019-01-24T00:03:15.384Z,-4.28
2019-01-24T00:04:16.854Z,-4.22
2019-01-24T00:05:15.363Z,-4.34
2019-01-24T00:09:15.317Z,-4.48
2019-01-24T00:12:15.286Z,-4.49
2019-01-24T00:13:15.473Z,-4.57
2019-01-24T00:14:15.273Z,-4.55
2019-01-24T00:17:15.225Z,-4.64
2019-01-24T00:19:15.197Z,-4.66
2019-01-24T00:20:15.185Z,-4.64
2019-01-24T00:22:16.386Z,-4.61
2019-01-24T00:23:15.358Z,-4.57
2019-01-24T00:25:16.351Z,-4.59
2019-01-24T00:28:15.293Z,-4.39
2019-01-24T00:29:15.085Z,-4.39
2019-01-24T00:30:15.270Z,-4.32
2019-01-24T00:31:15.262Z,-4.34
2019-01-24T00:34:15.023Z,-4.25
2019-01-24T00:35:15.210Z,-4.32
2019-01-24T00:36:15.209Z,-4.27
2019-01-24T00:38:14.980Z,-4.24
2019-01-24T00:39:14.960Z,-4.27
2019-01-24T00:40:14.954Z,-4.32
2019-01-24T00:41:14.938Z,-4.20
2019-01-24T00:42:14.926Z,-4.30
2019-01-24T00:44:14.905Z,-4.32
2019-01-24T00:45:14.890Z,-4.17
2019-01-24T00:46:14.882Z,-4.24
2019-01-24T00:47:14.871Z,-4.24
2019-01-24T00:48:14.859Z,-4.24
2019-01-24T00:49:14.843Z,-4.30
2019-01-24T00:50:15.039Z,-4.24
2019-01-24T00:51:15.026Z,-4.25
2019-01-24T00:52:14.812Z,-4.14
2019-01-24T00:54:14.990Z,-4.17
2019-01-24T00:56:14.761Z,-4.20
2019-01-24T00:57:14.750Z,-4.09
2019-01-24T00:58:14.740Z,-4.12
2019-01-24T00:59:14.726Z,-4.13
2019-01-24T01:00:14.924Z,-4.13
2019-01-24T01:01:14.706Z,-4.13
2019-01-24T01:03:14.677Z,-4.06
2019-01-24T01:04:14.667Z,-4.13
2019-01-24T01:05:14.660Z,-4.20
2019-01-24T01:06:14.650Z,-4.02
2019-01-24T01:07:14.632Z,-4.12
2019-01-24T01:08:14.826Z,-4.10
2019-01-24T01:09:14.611Z,-4.10
2019-01-24T01:10:14.601Z,-4.17
2019-01-24T01:12:14.773Z,-4.16
2019-01-24T01:13:14.565Z,-4.16
2019-01-24T01:14:14.550Z,-4.24
2019-01-24T01:15:14.543Z,-4.27
2019-01-24T01:16:14.529Z,-4.25
2019-01-24T01:17:14.512Z,-4.24
2019-01-24T01:18:14.710Z,-4.16
2019-01-24T01:20:47.693Z,-4.32
2019-01-24T01:22:14.858Z,-4.32
2019-01-24T01:23:14.446Z,-4.28
2019-01-24T01:24:14.430Z,-4.32
2019-01-24T01:26:14.406Z,-4.31
2019-01-24T01:27:14.395Z,-4.35
2019-01-24T01:30:14.363Z,-4.59
2019-01-24T01:31:14.347Z,-4.59
2019-01-24T01:33:14.542Z,-4.60
2019-01-24T01:34:14.521Z,-4.69
2019-01-24T01:35:14.303Z,-4.63
2019-01-24T01:36:14.495Z,-4.77
2019-01-24T01:37:14.278Z,-4.75
2019-01-24T01:39:14.255Z,-4.87
2019-01-24T01:41:14.228Z,-4.92
2019-01-24T01:42:14.221Z,-4.89
2019-01-24T01:43:14.206Z,-4.91
2019-01-24T01:44:14.396Z,-5.08
2019-01-24T01:45:14.390Z,-5.08
2019-01-24T01:46:14.169Z,-5.13
2019-01-24T01:47:14.156Z,-5.09
2019-01-24T01:48:14.152Z,-5.08
2019-01-24T01:49:14.137Z,-5.25
2019-01-24T01:50:14.327Z,-5.17
2019-01-24T01:51:14.113Z,-5.27
2019-01-24T01:52:14.098Z,-5.35
2019-01-24T01:53:14.292Z,-5.29
2019-01-24T01:54:14.079Z,-5.33
2019-01-24T01:55:14.069Z,-5.36
2019-01-24T01:56:14.054Z,-5.39
2019-01-24T01:57:14.034Z,-5.39
2019-01-24T01:58:14.024Z,-5.40
2019-01-24T01:59:14.011Z,-5.53
2019-01-24T02:01:13.985Z,-5.63
2019-01-24T02:02:13.974Z,-5.61
2019-01-24T02:03:13.962Z,-5.64
2019-01-24T02:04:13.951Z,-5.63
2019-01-24T02:06:13.925Z,-5.71
2019-01-24T02:07:13.911Z,-5.76
2019-01-24T02:08:13.901Z,-5.71
2019-01-24T02:09:13.888Z,-5.75
2019-01-24T02:10:13.874Z,-5.76
2019-01-24T02:12:13.850Z,-5.71
2019-01-24T02:14:13.830Z,-5.81
2019-01-24T02:15:13.824Z,-5.85
2019-01-24T02:17:13.790Z,-5.99
2019-01-24T02:18:13.984Z,-5.99
2019-01-24T02:19:13.772Z,-5.99
2019-01-24T02:20:13.757Z,-5.99
2019-01-24T02:21:13.741Z,-6.05
2019-01-24T02:26:13.678Z,-6.21
2019-01-24T02:27:13.665Z,-6.20
2019-01-24T02:28:13.860Z,-6.32
2019-01-24T02:29:13.642Z,-6.26
2019-01-24T02:30:13.637Z,-6.38
2019-01-24T02:31:13.819Z,-6.36
2019-01-24T02:32:13.610Z,-6.38
2019-01-24T02:33:13.657Z,-6.41
2019-01-24T02:34:13.797Z,-6.41
2019-01-24T02:36:13.554Z,-6.39
2019-01-24T02:38:13.535Z,-6.49
2019-01-24T02:42:13.483Z,-6.60
2019-01-24T02:43:13.474Z,-6.58
2019-01-24T02:44:13.665Z,-6.58
2019-01-24T02:45:13.447Z,-6.61
2019-01-24T02:47:13.622Z,-6.66
2019-01-24T02:49:13.394Z,-6.66
2019-01-24T02:50:13.386Z,-6.69
2019-01-24T02:55:13.321Z,-6.84
2019-01-24T02:56:13.512Z,-6.78
2019-01-24T02:57:13.294Z,-6.71
2019-01-24T02:58:13.290Z,-6.75
2019-01-24T02:59:13.271Z,-6.74
2019-01-24T03:00:13.258Z,-6.75
2019-01-24T03:01:13.243Z,-6.92
2019-01-24T03:02:13.430Z,-6.84
2019-01-24T03:04:13.206Z,-6.97
2019-01-24T03:06:13.180Z,-6.94
2019-01-24T03:07:13.372Z,-6.97
2019-01-24T03:08:13.162Z,-6.97
2019-01-24T03:09:13.146Z,-6.90
2019-01-24T03:10:13.336Z,-7.03
2019-01-24T03:12:13.510Z,-7.08
2019-01-24T03:13:13.096Z,-7.00
2019-01-24T03:14:13.283Z,-7.07
2019-01-24T03:15:13.066Z,-7.07
2019-01-24T03:16:13.056Z,-7.03
2019-01-24T03:17:13.042Z,-7.04
2019-01-24T03:18:13.034Z,-7.08
2019-01-24T03:20:13.003Z,-7.10
2019-01-24T03:21:12.992Z,-7.04
2019-01-24T03:22:12.976Z,-7.08
2019-01-24T03:24:13.157Z,-7.14
2019-01-24T03:25:12.944Z,-7.00
2019-01-24T03:26:12.923Z,-7.00
2019-01-24T03:27:13.121Z,-6.93
2019-01-24T03:28:12.903Z,-6.93
2019-01-24T03:29:12.889Z,-6.97
2019-01-24T03:30:12.881Z,-6.89
2019-01-24T03:31:12.887Z,-6.86
2019-01-24T03:33:14.043Z,-6.76
2019-01-24T03:35:12.815Z,-6.76
2019-01-24T03:37:12.784Z,-6.76
2019-01-24T03:38:12.774Z,-6.81
2019-01-24T03:39:12.963Z,-6.79
2019-01-24T03:40:12.754Z,-6.84
2019-01-24T03:41:12.733Z,-6.89
2019-01-24T03:42:12.723Z,-6.92
2019-01-24T03:43:12.711Z,-6.81
2019-01-24T03:44:12.703Z,-6.87
2019-01-24T03:45:12.687Z,-6.87
2019-01-24T03:46:12.879Z,-6.84
2019-01-24T03:47:12.664Z,-6.90
2019-01-24T03:48:12.648Z,-6.90
2019-01-24T03:49:12.632Z,-7.03
2019-01-24T03:50:12.622Z,-6.92
2019-01-24T03:51:12.817Z,-7.00
2019-01-24T03:53:12.581Z,-6.93
2019-01-24T03:55:12.558Z,-7.03
2019-01-24T03:58:12.523Z,-6.97
2019-01-24T03:59:12.512Z,-6.94
2019-01-24T04:00:12.497Z,-6.79
2019-01-24T04:01:12.490Z,-6.75
2019-01-24T04:02:12.670Z,-6.90
2019-01-24T04:03:12.658Z,-6.84
2019-01-24T04:05:12.437Z,-6.81
2019-01-24T04:06:12.422Z,-6.76
2019-01-24T04:07:12.408Z,-6.74
2019-01-24T04:08:12.397Z,-6.81
2019-01-24T04:09:12.378Z,-6.68
2019-01-24T04:10:12.364Z,-6.63
2019-01-24T04:12:12.357Z,-6.60
2019-01-24T04:14:12.325Z,-6.54
2019-01-24T04:15:12.308Z,-6.44
2019-01-24T04:17:12.283Z,-6.42
2019-01-24T04:18:12.271Z,-6.38
2019-01-24T04:19:12.257Z,-6.44
2019-01-24T04:21:12.227Z,-6.29
2019-01-24T04:24:12.196Z,-6.20
2019-01-24T04:25:12.178Z,-6.08
2019-01-24T04:26:13.380Z,-5.99
2019-01-24T04:27:12.155Z,-6.08
2019-01-24T04:28:12.143Z,-5.85
2019-01-24T04:29:12.132Z,-5.82
2019-01-24T04:30:12.318Z,-5.86
2019-01-24T04:31:12.107Z,-5.79
2019-01-24T04:32:12.092Z,-5.79
2019-01-24T04:35:19.392Z,-5.61
2019-01-24T04:36:12.248Z,-5.63
2019-01-24T04:37:12.028Z,-5.60
2019-01-24T04:38:12.017Z,-5.63
2019-01-24T04:39:12.210Z,-5.51
2019-01-24T04:40:11.994Z,-5.54
2019-01-24T04:41:11.979Z,-5.49
2019-01-24T04:42:12.165Z,-5.53
2019-01-24T04:43:12.156Z,-5.47
2019-01-24T04:45:12.131Z,-5.38
2019-01-24T04:46:11.917Z,-5.31
2019-01-24T04:48:11.903Z,-5.24
2019-01-24T04:49:12.489Z,-5.29
2019-01-24T04:50:11.865Z,-5.25
2019-01-24T04:52:12.249Z,-5.19
2019-01-24T04:53:12.035Z,-5.18
2019-01-24T04:54:11.824Z,-5.22
2019-01-24T04:56:11.794Z,-5.06
2019-01-24T04:57:11.782Z,-5.08
2019-01-24T04:58:11.772Z,-5.14
2019-01-24T04:59:11.754Z,-5.17
2019-01-24T05:00:11.745Z,-5.02
2019-01-24T05:01:11.742Z,-5.19
2019-01-24T05:02:11.724Z,-5.05
2019-01-24T05:03:11.714Z,-5.09
2019-01-24T05:05:11.686Z,-5.08
2019-01-24T05:06:11.668Z,-5.03
2019-01-24T05:09:11.640Z,-4.89
2019-01-24T05:10:11.829Z,-4.96
2019-01-24T05:11:11.608Z,-4.96
2019-01-24T05:13:11.592Z,-4.91
2019-01-24T05:14:11.578Z,-4.92
2019-01-24T05:17:11.544Z,-4.84
2019-01-24T05:20:11.501Z,-4.89
2019-01-24T05:21:11.490Z,-4.88
2019-01-24T05:22:11.480Z,-4.89
2019-01-24T05:24:11.458Z,-4.91
2019-01-24T05:25:11.445Z,-4.82
2019-01-24T05:26:11.435Z,-4.84
2019-01-24T05:27:11.416Z,-4.79
2019-01-24T05:28:11.409Z,-4.71
2019-01-24T05:29:11.394Z,-4.77
2019-01-24T05:30:11.381Z,-4.70
2019-01-24T05:31:44.580Z,-4.70
2019-01-24T05:32:11.361Z,-4.71
2019-01-24T05:33:11.344Z,-4.63
2019-01-24T05:35:11.527Z,-4.66
2019-01-24T05:36:11.317Z,-4.64
2019-01-24T05:38:11.286Z,-4.59
2019-01-24T05:39:11.277Z,-4.60
2019-01-24T05:41:11.654Z,-4.53
2019-01-24T05:42:11.237Z,-4.59
2019-01-24T05:43:11.229Z,-4.60
2019-01-24T05:45:11.407Z,-4.52
2019-01-24T05:46:11.197Z,-4.63
2019-01-24T05:47:11.183Z,-4.48
2019-01-24T05:48:11.172Z,-4.53
2019-01-24T05:49:11.161Z,-4.53
2019-01-24T05:50:11.149Z,-4.38
2019-01-24T05:51:11.129Z,-4.45
2019-01-24T05:52:11.128Z,-4.39
2019-01-24T05:53:11.510Z,-4.34
2019-01-24T05:54:11.102Z,-4.45
2019-01-24T05:55:11.285Z,-4.41
2019-01-24T05:56:11.073Z,-4.35
2019-01-24T05:57:11.065Z,-4.39
2019-01-24T05:58:11.049Z,-4.35
2019-01-24T05:59:11.036Z,-4.31
2019-01-24T06:00:11.024Z,-4.28
2019-01-24T06:01:11.010Z,-4.28
2019-01-24T06:02:11.000Z,-4.31
2019-01-24T06:03:10.994Z,-4.35
2019-01-24T06:04:10.977Z,-4.34
2019-01-24T06:05:10.967Z,-4.22
2019-01-24T06:08:10.938Z,-4.35
2019-01-24T06:09:10.917Z,-4.32
2019-01-24T06:10:11.116Z,-4.34
2019-01-24T06:11:10.899Z,-4.22
2019-01-24T06:12:10.888Z,-4.20
2019-01-24T06:13:10.880Z,-4.27
2019-01-24T06:14:12.096Z,-4.31
2019-01-24T06:15:10.852Z,-4.25
2019-01-24T06:17:10.831Z,-4.27
2019-01-24T06:18:10.820Z,-4.30
2019-01-24T06:19:10.809Z,-4.20
2019-01-24T06:20:10.791Z,-4.27
2019-01-24T06:21:10.981Z,-4.24
2019-01-24T06:23:11.194Z,-4.24
2019-01-24T06:24:10.747Z,-4.20
2019-01-24T06:25:10.733Z,-4.22
2019-01-24T06:26:10.717Z,-4.27
2019-01-24T06:28:10.704Z,-4.16
2019-01-24T06:30:10.677Z,-4.28
2019-01-24T06:31:10.664Z,-4.30
2019-01-24T06:32:10.655Z,-4.16
2019-01-24T06:33:10.646Z,-4.21
2019-01-24T06:34:10.632Z,-4.28
2019-01-24T06:36:10.609Z,-4.16
2019-01-24T06:37:10.595Z,-4.27
2019-01-24T06:38:10.576Z,-4.13
2019-01-24T06:39:10.770Z,-4.16
2019-01-24T06:40:10.553Z,-4.20
2019-01-24T06:43:10.521Z,-4.21
2019-01-24T06:44:10.511Z,-4.20
2019-01-24T06:45:10.498Z,-4.25
2019-01-24T06:47:10.478Z,-4.14
2019-01-24T06:48:10.466Z,-4.13
2019-01-24T06:49:10.455Z,-4.12
2019-01-24T06:50:10.847Z,-4.16
2019-01-24T06:51:10.422Z,-4.12
2019-01-24T06:52:10.420Z,-4.22
2019-01-24T06:53:10.400Z,-4.13
2019-01-24T06:55:10.582Z,-4.12
2019-01-24T06:56:10.375Z,-4.10
2019-01-24T06:57:10.558Z,-4.10
2019-01-24T06:58:10.349Z,-4.10
2019-01-24T07:00:10.526Z,-4.17
2019-01-24T07:01:10.311Z,-4.14
2019-01-24T07:03:10.291Z,-4.10
2019-01-24T07:04:10.271Z,-4.09
2019-01-24T07:05:10.461Z,-4.10
2019-01-24T07:06:10.255Z,-4.10
2019-01-24T07:07:10.438Z,-4.04
2019-01-24T07:08:10.434Z,-4.04
2019-01-24T07:09:10.217Z,-4.02
2019-01-24T07:10:10.205Z,-4.02
2019-01-24T07:11:10.197Z,-4.04
2019-01-24T07:12:10.177Z,-3.98
2019-01-24T07:13:10.164Z,-4.06
2019-01-24T07:14:10.161Z,-4.03
2019-01-24T07:17:10.322Z,-3.93
2019-01-24T07:18:10.111Z,-3.88
2019-01-24T07:20:10.092Z,-3.95
2019-01-24T07:21:10.074Z,-3.95
2019-01-24T07:23:10.058Z,-3.88
2019-01-24T07:24:10.036Z,-3.93
2019-01-24T07:25:10.024Z,-3.86
2019-01-24T07:26:10.019Z,-3.91
2019-01-24T07:28:09.994Z,-3.86
2019-01-24T07:30:10.172Z,-3.88
2019-01-24T07:31:09.954Z,-3.89
2019-01-24T07:32:09.942Z,-3.88
2019-01-24T07:33:09.934Z,-3.92
2019-01-24T07:34:09.919Z,-3.85
2019-01-24T07:35:09.912Z,-3.89
2019-01-24T07:37:09.890Z,-3.89
2019-01-24T07:38:09.875Z,-3.89
2019-01-24T07:39:09.868Z,-3.85
2019-01-24T07:40:09.848Z,-3.91
2019-01-24T07:42:10.028Z,-3.86
2019-01-24T07:43:09.814Z,-3.86
2019-01-24T07:44:09.807Z,-3.83
2019-01-24T07:45:09.795Z,-3.83
2019-01-24T07:46:09.985Z,-3.82
2019-01-24T07:48:09.757Z,-3.80
2019-01-24T07:49:09.994Z,-3.85
2019-01-24T07:50:09.738Z,-3.92
2019-01-24T07:51:09.722Z,-3.89
2019-01-24T07:52:09.711Z,-3.86
2019-01-24T07:53:09.696Z,-3.86
2019-01-24T07:54:09.684Z,-3.83
2019-01-24T07:55:10.849Z,-3.85
2019-01-24T07:56:09.670Z,-3.86
2019-01-24T07:57:09.857Z,-3.85
2019-01-24T07:59:09.629Z,-3.77
2019-01-24T08:01:09.602Z,-3.80
2019-01-24T08:03:09.784Z,-3.83
2019-01-24T08:04:09.574Z,-3.80
2019-01-24T08:05:09.562Z,-3.82
2019-01-24T08:06:09.559Z,-3.77
2019-01-24T08:07:09.741Z,-3.75
2019-01-24T08:08:09.524Z,-3.80
2019-01-24T08:09:09.509Z,-3.80
2019-01-24T08:10:09.497Z,-3.83
2019-01-24T08:13:09.462Z,-3.86
2019-01-24T08:14:09.654Z,-3.85
2019-01-24T08:17:09.416Z,-3.72
2019-01-24T08:18:09.411Z,-3.66
2019-01-24T08:19:09.399Z,-3.70
2019-01-24T08:20:10.593Z,-3.64
2019-01-24T08:21:09.375Z,-3.67
2019-01-24T08:22:09.363Z,-3.70
2019-01-24T08:23:09.554Z,-3.67
2019-01-24T08:24:09.339Z,-3.75
2019-01-24T08:25:09.324Z,-3.70
2019-01-24T08:27:09.305Z,-3.69
2019-01-24T08:28:09.289Z,-3.77
2019-01-24T08:30:09.268Z,-3.69
2019-01-24T08:31:09.258Z,-3.69
2019-01-24T08:32:09.250Z,-3.63
2019-01-24T08:33:09.234Z,-3.64
2019-01-24T08:34:09.221Z,-3.64
2019-01-24T08:35:10.433Z,-3.69
2019-01-24T08:36:15.433Z,-3.67
2019-01-24T08:37:09.186Z,-3.63
2019-01-24T08:42:09.133Z,-3.58
2019-01-24T08:43:10.334Z,-3.59
2019-01-24T08:44:09.109Z,-3.58
2019-01-24T08:46:09.087Z,-3.52
2019-01-24T08:47:09.276Z,-3.61
2019-01-24T08:48:09.058Z,-3.48
2019-01-24T08:49:09.262Z,-3.52
2019-01-24T08:50:09.031Z,-3.51
2019-01-24T08:51:09.026Z,-3.58
2019-01-24T08:52:09.014Z,-3.51
2019-01-24T08:53:09.003Z,-3.51
2019-01-24T08:54:08.989Z,-3.48
2019-01-24T08:56:08.971Z,-3.59
2019-01-24T08:57:08.954Z,-3.58
2019-01-24T08:58:09.145Z,-3.64
2019-01-24T09:01:08.905Z,-3.51
2019-01-24T09:02:08.894Z,-3.44
2019-01-24T09:03:08.884Z,-3.49
2019-01-24T09:04:08.881Z,-3.55
2019-01-24T09:06:09.062Z,-3.48
2019-01-24T09:07:08.838Z,-3.49
2019-01-24T09:08:08.832Z,-3.40
2019-01-24T09:09:08.844Z,-3.35
2019-01-24T09:10:08.806Z,-3.44
2019-01-24T09:13:08.780Z,-3.48
2019-01-24T09:14:08.763Z,-3.38
2019-01-24T09:15:08.751Z,-3.44
2019-01-24T09:16:08.742Z,-3.35
2019-01-24T09:17:08.732Z,-3.46
2019-01-24T09:18:08.721Z,-3.34
2019-01-24T09:19:08.705Z,-3.34
2019-01-24T09:20:08.698Z,-3.38
2019-01-24T09:21:08.687Z,-3.31
2019-01-24T09:22:08.679Z,-3.38
2019-01-24T09:24:08.651Z,-3.41
2019-01-24T09:25:41.847Z,-3.40
2019-01-24T09:26:09.853Z,-3.34
2019-01-24T09:27:08.612Z,-3.38
2019-01-24T09:29:08.790Z,-3.34
2019-01-24T09:30:08.584Z,-3.34
2019-01-24T09:31:08.567Z,-3.28
2019-01-24T09:32:08.558Z,-3.38
2019-01-24T09:33:08.547Z,-3.30
2019-01-24T09:34:08.538Z,-3.35
2019-01-24T09:36:08.721Z,-3.37
2019-01-24T09:37:08.499Z,-3.22
2019-01-24T09:38:08.492Z,-3.22
2019-01-24T09:39:08.480Z,-3.20
2019-01-24T09:40:08.675Z,-3.23
2019-01-24T09:41:08.462Z,-3.25
2019-01-24T09:43:08.437Z,-3.37
2019-01-24T09:44:08.430Z,-3.46
2019-01-24T09:45:08.417Z,-3.45
2019-01-24T09:46:08.403Z,-3.44
2019-01-24T09:47:08.596Z,-3.45
2019-01-24T09:48:08.584Z,-3.41
2019-01-24T09:49:08.373Z,-3.35
2019-01-24T09:50:08.358Z,-3.28
2019-01-24T09:51:08.352Z,-3.23
2019-01-24T09:52:08.339Z,-3.15
2019-01-24T09:53:08.323Z,-3.15
2019-01-24T09:54:08.312Z,-3.17
2019-01-24T09:55:08.304Z,-3.17
2019-01-24T09:56:08.290Z,-3.07
2019-01-24T09:57:08.484Z,-3.13
2019-01-24T09:58:08.268Z,-3.09
2019-01-24T09:59:08.263Z,-2.95
2019-01-24T10:00:08.245Z,-3.13
2019-01-24T10:03:08.213Z,-3.06
2019-01-24T10:04:08.212Z,-3.10
2019-01-24T10:05:08.190Z,-2.89
2019-01-24T10:06:08.183Z,-3.02
2019-01-24T10:07:08.170Z,-3.07
2019-01-24T10:08:08.159Z,-2.95
2019-01-24T10:09:08.150Z,-3.13
2019-01-24T10:11:08.128Z,-2.92
2019-01-24T10:12:08.112Z,-2.99
2019-01-24T10:14:08.299Z,-2.95
2019-01-24T10:15:08.082Z,-2.95
2019-01-24T10:16:08.068Z,-2.97
2019-01-24T10:17:41.475Z,-2.92
2019-01-24T10:18:08.259Z,-2.95
2019-01-24T10:20:08.026Z,-2.92
2019-01-24T10:23:08.000Z,-2.78
2019-01-24T10:25:07.971Z,-2.83
2019-01-24T10:26:07.964Z,-2.78
2019-01-24T10:27:07.956Z,-2.73
2019-01-24T10:28:07.941Z,-2.80
2019-01-24T10:29:07.932Z,-2.74
2019-01-24T10:30:07.919Z,-2.73
2019-01-24T10:31:08.112Z,-2.74
2019-01-24T10:34:07.882Z,-2.71
2019-01-24T10:35:07.862Z,-2.73
2019-01-24T10:36:07.860Z,-2.69
2019-01-24T10:37:07.848Z,-2.76
2019-01-24T10:38:07.831Z,-2.63
2019-01-24T10:39:07.820Z,-2.63
2019-01-24T10:40:07.815Z,-2.58
2019-01-24T10:41:07.800Z,-2.60
2019-01-24T10:43:07.780Z,-2.52
2019-01-24T10:45:07.763Z,-2.58
2019-01-24T10:46:07.752Z,-2.48
2019-01-24T10:48:07.732Z,-2.59
2019-01-24T10:49:07.715Z,-2.50
2019-01-24T10:50:07.703Z,-2.50
2019-01-24T10:51:07.698Z,-2.52
2019-01-24T10:52:07.689Z,-2.48
2019-01-24T10:53:07.675Z,-2.52
2019-01-24T10:54:07.666Z,-2.50
2019-01-24T10:56:07.864Z,-2.48
2019-01-24T10:57:07.628Z,-2.45
2019-01-24T10:58:07.620Z,-2.53
2019-01-24T11:00:07.602Z,-2.50
2019-01-24T11:01:07.594Z,-2.53
2019-01-24T11:02:07.582Z,-2.52
2019-01-24T11:03:07.572Z,-2.42
2019-01-24T11:05:07.553Z,-2.44
2019-01-24T11:08:07.717Z,-2.55
2019-01-24T11:09:07.507Z,-2.56
2019-01-24T11:11:07.684Z,-2.55
2019-01-24T11:13:07.668Z,-2.42
2019-01-24T11:14:07.656Z,-2.52
2019-01-24T11:15:07.646Z,-2.40
2019-01-24T11:16:07.437Z,-2.47
2019-01-24T11:17:07.426Z,-2.42
2019-01-24T11:18:07.419Z,-2.47
2019-01-24T11:19:07.403Z,-2.45
2019-01-24T11:20:07.389Z,-2.42
2019-01-24T11:21:07.382Z,-2.45
2019-01-24T11:22:07.575Z,-2.38
2019-01-24T11:23:07.358Z,-2.41
2019-01-24T11:25:07.334Z,-2.34
2019-01-24T11:26:07.525Z,-2.32
2019-01-24T11:27:07.324Z,-2.53
2019-01-24T11:28:07.303Z,-2.58
2019-01-24T11:29:07.293Z,-2.53
2019-01-24T11:30:07.285Z,-2.50
2019-01-24T11:31:07.480Z,-2.37
2019-01-24T11:32:07.266Z,-2.40
2019-01-24T11:33:07.256Z,-2.34
2019-01-24T11:34:07.241Z,-2.30
2019-01-24T11:36:07.424Z,-2.25
2019-01-24T11:38:07.338Z,-2.26
2019-01-24T11:39:07.197Z,-2.18
2019-01-24T11:40:07.183Z,-2.23
2019-01-24T11:42:07.165Z,-2.40
2019-01-24T11:43:07.153Z,-2.47
2019-01-24T11:44:07.143Z,-2.38
2019-01-24T11:45:07.330Z,-2.53
2019-01-24T11:46:07.116Z,-2.56
2019-01-24T11:47:07.111Z,-2.53
2019-01-24T11:48:07.097Z,-2.48
2019-01-24T11:49:07.085Z,-2.48
2019-01-24T11:50:07.074Z,-2.47
2019-01-24T11:51:07.072Z,-2.58
2019-01-24T11:52:07.055Z,-2.41
2019-01-24T11:53:07.245Z,-2.41
2019-01-24T11:55:07.226Z,-2.41
2019-01-24T11:56:07.695Z,-2.38
2019-01-24T11:57:07.005Z,-2.40
2019-01-24T11:59:06.986Z,-2.40
2019-01-24T12:00:06.978Z,-2.40
2019-01-24T12:01:06.964Z,-2.26
2019-01-24T12:02:06.959Z,-2.28
2019-01-24T12:03:06.944Z,-2.23
2019-01-24T12:04:07.136Z,-2.26
2019-01-24T12:05:06.923Z,-2.40
2019-01-24T12:06:07.118Z,-2.47
2019-01-24T12:07:07.102Z,-2.34
2019-01-24T12:08:07.091Z,-2.41
2019-01-24T12:09:06.881Z,-2.44
2019-01-24T12:10:06.873Z,-2.52
2019-01-24T12:11:06.863Z,-2.52
2019-01-24T12:12:40.059Z,-2.58
2019-01-24T12:13:06.840Z,-2.56
2019-01-24T12:14:06.830Z,-2.55
2019-01-24T12:15:06.822Z,-2.55
2019-01-24T12:16:06.809Z,-2.47
2019-01-24T12:17:06.796Z,-2.60
2019-01-24T12:18:06.785Z,-2.52
2019-01-24T12:19:06.780Z,-2.62
2019-01-24T12:20:06.772Z,-2.60
2019-01-24T12:21:07.163Z,-2.63
2019-01-24T12:22:06.743Z,-2.60
2019-01-24T12:23:06.731Z,-2.56
2019-01-24T12:24:06.720Z,-2.65
2019-01-24T12:25:06.715Z,-2.65
2019-01-24T12:26:06.699Z,-2.71
2019-01-24T12:27:06.691Z,-2.78
2019-01-24T12:30:06.656Z,-2.92
2019-01-24T12:31:06.648Z,-2.95
2019-01-24T12:34:06.617Z,-2.95
2019-01-24T12:35:06.603Z,-2.86
2019-01-24T12:36:06.799Z,-2.86
2019-01-24T12:37:11.290Z,-2.80
2019-01-24T12:38:06.572Z,-2.84
2019-01-24T12:40:39.966Z,-2.94
2019-01-24T12:41:06.544Z,-2.81
2019-01-24T12:42:06.736Z,-2.83
2019-01-24T12:43:06.523Z,-2.77
2019-01-24T12:44:06.514Z,-2.73
2019-01-24T12:45:06.700Z,-2.66
2019-01-24T12:46:06.490Z,-2.70
2019-01-24T12:48:06.669Z,-2.65
2019-01-24T12:49:06.460Z,-2.63
2019-01-24T12:50:06.444Z,-2.48
2019-01-24T12:51:06.637Z,-2.58
2019-01-24T12:52:06.423Z,-2.56
2019-01-24T12:53:06.414Z,-2.38
2019-01-24T12:55:06.395Z,-2.42
2019-01-24T12:56:06.381Z,-2.47
2019-01-24T12:58:06.360Z,-2.40
2019-01-24T12:59:06.350Z,-2.48
2019-01-24T13:00:06.340Z,-2.48
2019-01-24T13:01:06.329Z,-2.45
2019-01-24T13:03:06.305Z,-2.66
2019-01-24T13:04:06.296Z,-2.62
2019-01-24T13:05:06.489Z,-2.58
2019-01-24T13:06:06.278Z,-2.59
2019-01-24T13:07:06.467Z,-2.47
2019-01-24T13:08:06.250Z,-2.52
2019-01-24T13:09:06.244Z,-2.55
2019-01-24T13:10:06.233Z,-2.56
2019-01-24T13:11:06.219Z,-2.58
2019-01-24T13:12:06.211Z,-2.53
2019-01-24T13:13:06.200Z,-2.50
2019-01-24T13:14:06.193Z,-2.60
2019-01-24T13:15:06.177Z,-2.65
2019-01-24T13:16:06.169Z,-2.76
2019-01-24T13:17:06.158Z,-2.69
2019-01-24T13:18:06.143Z,-2.81
2019-01-24T13:19:06.344Z,-2.84
2019-01-24T13:20:06.130Z,-2.77
2019-01-24T13:21:06.118Z,-2.80
2019-01-24T13:22:06.103Z,-2.86
2019-01-24T13:23:06.098Z,-2.71
2019-01-24T13:24:06.287Z,-2.66
2019-01-24T13:25:06.068Z,-2.69
2019-01-24T13:26:06.070Z,-2.77
2019-01-24T13:27:06.253Z,-2.65
2019-01-24T13:28:06.045Z,-2.58
2019-01-24T13:29:06.235Z,-2.55
2019-01-24T13:30:06.022Z,-2.50
2019-01-24T13:31:06.013Z,-2.52
2019-01-24T13:32:05.998Z,-2.53
2019-01-24T13:34:05.979Z,-2.52
2019-01-24T13:36:05.955Z,-2.44
2019-01-24T13:37:05.942Z,-2.45
2019-01-24T13:38:39.146Z,-2.45
2019-01-24T13:39:05.919Z,-2.44
2019-01-24T13:40:06.113Z,-2.45
2019-01-24T13:41:05.908Z,-2.41
2019-01-24T13:42:06.089Z,-2.47
2019-01-24T13:43:05.893Z,-2.37
2019-01-24T13:45:05.856Z,-2.44
2019-01-24T13:47:05.839Z,-2.41
2019-01-24T13:51:05.800Z,-2.58
2019-01-24T13:53:05.778Z,-2.56
2019-01-24T13:56:05.782Z,-2.63
2019-01-24T13:58:05.723Z,-2.73
2019-01-24T13:59:05.725Z,-2.71
2019-01-24T14:00:05.697Z,-2.53
2019-01-24T14:02:05.681Z,-2.52
2019-01-24T14:03:06.074Z,-2.47
2019-01-24T14:04:05.663Z,-2.56
2019-01-24T14:05:05.649Z,-2.59
2019-01-24T14:06:05.636Z,-2.55
2019-01-24T14:08:39.028Z,-2.52
2019-01-24T14:10:05.594Z,-2.71
2019-01-24T14:11:05.586Z,-2.86
2019-01-24T14:12:05.775Z,-2.83
2019-01-24T14:13:05.561Z,-2.78
2019-01-24T14:14:05.551Z,-2.77
2019-01-24T14:15:05.748Z,-2.66
2019-01-24T14:19:05.502Z,-2.58
2019-01-24T14:21:05.479Z,-2.69
2019-01-24T14:23:05.458Z,-2.71
2019-01-24T14:26:05.423Z,-2.76
2019-01-24T14:27:05.817Z,-2.78
2019-01-24T14:28:05.400Z,-2.80
2019-01-24T14:29:05.393Z,-2.86
2019-01-24T14:30:05.581Z,-2.84
2019-01-24T14:31:05.577Z,-2.97
2019-01-24T14:32:05.360Z,-2.92
2019-01-24T14:33:05.346Z,-2.97
2019-01-24T14:35:05.532Z,-2.98
2019-01-24T14:36:05.318Z,-3.06
2019-01-24T14:37:05.302Z,-2.99
2019-01-24T14:38:05.499Z,-3.04
2019-01-24T14:39:05.282Z,-3.06
2019-01-24T14:41:05.262Z,-3.06
2019-01-24T14:43:05.239Z,-3.04
2019-01-24T14:44:05.225Z,-3.04
2019-01-24T14:45:05.214Z,-3.02
2019-01-24T14:46:05.204Z,-3.07
2019-01-24T14:47:05.393Z,-3.04
2019-01-24T14:48:05.185Z,-2.98
2019-01-24T14:49:05.173Z,-2.97
2019-01-24T14:50:05.158Z,-3.06
2019-01-24T14:51:05.149Z,-3.04
2019-01-24T14:52:05.136Z,-2.98
2019-01-24T14:53:05.120Z,-3.01
2019-01-24T14:54:05.117Z,-2.99
2019-01-24T14:55:05.310Z,-2.88
2019-01-24T14:56:05.091Z,-2.95
2019-01-24T14:57:05.084Z,-2.89
2019-01-24T14:58:05.073Z,-2.99
2019-01-24T14:59:05.056Z,-2.89
2019-01-24T15:00:05.047Z,-2.91
2019-01-24T15:01:05.038Z,-2.95
2019-01-24T15:02:05.027Z,-3.06
2019-01-24T15:03:05.015Z,-2.98
2019-01-24T15:05:05.191Z,-2.99
2019-01-24T15:08:04.955Z,-3.12
2019-01-24T15:10:04.936Z,-3.04
2019-01-24T15:11:04.921Z,-2.92
2019-01-24T15:12:05.315Z,-2.89
2019-01-24T15:13:04.901Z,-2.92
2019-01-24T15:15:04.883Z,-2.92
2019-01-24T15:17:04.855Z,-2.94
2019-01-24T15:18:04.844Z,-2.95
2019-01-24T15:19:04.839Z,-2.91
2019-01-24T15:20:04.825Z,-2.94
2019-01-24T15:21:04.814Z,-2.98
2019-01-24T15:23:04.998Z,-3.09
2019-01-24T15:24:04.778Z,-3.12
2019-01-24T15:25:04.769Z,-3.06
2019-01-24T15:27:04.744Z,-3.16
2019-01-24T15:28:04.736Z,-3.17
2019-01-24T15:31:04.705Z,-2.99
2019-01-24T15:33:04.688Z,-3.09
2019-01-24T15:34:04.666Z,-3.15
2019-01-24T15:35:04.655Z,-3.19
2019-01-24T15:36:04.642Z,-3.17
2019-01-24T15:37:04.841Z,-3.12
2019-01-24T15:38:04.621Z,-3.12
2019-01-24T15:39:04.618Z,-3.15
2019-01-24T15:40:05.003Z,-3.10
2019-01-24T15:41:04.790Z,-3.01
2019-01-24T15:43:04.562Z,-3.12
2019-01-24T15:45:04.541Z,-3.19
2019-01-24T15:47:04.723Z,-3.23
2019-01-24T15:48:04.508Z,-3.25
2019-01-24T15:49:04.501Z,-3.25
2019-01-24T15:50:04.485Z,-3.22
2019-01-24T15:51:04.475Z,-3.31
2019-01-24T15:52:04.467Z,-3.28
2019-01-24T15:53:04.452Z,-3.31
2019-01-24T15:54:04.439Z,-3.31
2019-01-24T15:55:04.431Z,-3.34
2019-01-24T15:56:04.416Z,-3.35
2019-01-24T15:58:04.393Z,-3.44
2019-01-24T15:59:04.389Z,-3.38
2019-01-24T16:01:04.358Z,-3.34
2019-01-24T16:02:04.352Z,-3.46
2019-01-24T16:05:04.309Z,-3.44
2019-01-24T16:06:04.297Z,-3.46
2019-01-24T16:07:04.288Z,-3.41
2019-01-24T16:09:04.270Z,-3.51
2019-01-24T16:11:05.473Z,-3.38
2019-01-24T16:12:04.230Z,-3.48
2019-01-24T16:13:04.223Z,-3.44
2019-01-24T16:14:04.209Z,-3.30
2019-01-24T16:17:04.371Z,-3.31
2019-01-24T16:18:04.159Z,-3.34
2019-01-24T16:20:04.142Z,-3.27
2019-01-24T16:21:04.124Z,-3.25
2019-01-24T16:22:04.115Z,-3.30
2019-01-24T16:23:04.104Z,-3.34
2019-01-24T16:24:04.095Z,-3.33
2019-01-24T16:26:04.064Z,-3.40
2019-01-24T16:27:04.054Z,-3.38